createdAt,value
2022-10-10T00:00:50.592Z,101934.25
2022-10-10T00:03:18.556Z,101936.81
2022-10-10T00:05:45.466Z,101935.03
2022-10-10T00:08:12.248Z,101931.41
2022-10-10T00:10:39.057Z,101913.97
2022-10-10T00:13:06.423Z,101916.59
2022-10-10T00:15:33.622Z,101900.91
2022-10-10T00:18:00.367Z,101899.22
2022-10-10T00:20:27.435Z,101897.38
2022-10-10T00:22:55.022Z,101886.13
2022-10-10T00:25:21.832Z,101886.13
2022-10-10T00:27:48.655Z,101884.34
2022-10-10T00:30:18.295Z,101873.88
2022-10-10T00:32:45.280Z,101872.97
2022-10-10T00:35:12.566Z,101874.66
2022-10-10T00:37:39.502Z,101860.69
2022-10-10T00:40:07.346Z,101862.50
2022-10-10T00:42:34.549Z,101852.94
2022-10-10T00:45:22.534Z,101845.94
2022-10-10T00:47:51.370Z,101846.81
2022-10-10T00:50:22.348Z,101844.16
2022-10-10T00:52:49.829Z,101835.44
2022-10-10T00:55:17.999Z,101834.63
2022-10-10T00:57:45.471Z,101839.88
2022-10-10T01:00:12.881Z,101835.56
2022-10-10T01:02:39.704Z,101839.03
2022-10-10T01:05:06.706Z,101832.94
2022-10-10T01:07:33.852Z,101825.94
2022-10-10T01:10:06.499Z,101820.72
2022-10-10T01:12:36.037Z,101820.72
2022-10-10T01:15:31.597Z,101813.78
2022-10-10T01:18:01.067Z,101826.03
2022-10-10T01:20:41.151Z,101824.25
2022-10-10T01:23:29.134Z,101826.06
2022-10-10T01:26:20.710Z,101819.06
2022-10-10T01:29:30.132Z,101820.84
2022-10-10T01:32:15.418Z,101820.84
2022-10-10T01:35:01.778Z,101826.13
2022-10-10T01:37:39.442Z,101819.16
2022-10-10T01:40:16.497Z,101818.31
2022-10-10T01:42:56.679Z,101820.84
2022-10-10T01:45:24.320Z,101819.13
2022-10-10T01:47:53.967Z,101815.59
2022-10-10T01:50:24.109Z,101809.50
2022-10-10T01:53:11.235Z,101805.16
2022-10-10T01:56:06.291Z,101799.91
2022-10-10T01:58:59.210Z,101790.34
2022-10-10T02:02:04.730Z,101792.06
2022-10-10T02:04:31.604Z,101786.81
2022-10-10T02:07:39.029Z,101785.13
2022-10-10T02:10:07.900Z,101778.97
2022-10-10T02:12:36.217Z,101769.34
2022-10-10T02:15:11.252Z,101764.94
2022-10-10T02:17:39.901Z,101765.84
2022-10-10T02:20:08.932Z,101763.22
2022-10-10T02:22:38.775Z,101748.31
2022-10-10T02:25:06.610Z,101759.66
2022-10-10T02:27:58.158Z,101743.97
2022-10-10T02:30:25.175Z,101743.97
2022-10-10T02:32:56.500Z,101738.75
2022-10-10T02:35:28.666Z,101730.81
2022-10-10T02:37:55.978Z,101733.56
2022-10-10T02:40:26.329Z,101729.13
2022-10-10T02:42:56.224Z,101723.03
2022-10-10T02:45:23.595Z,101723.03
2022-10-10T02:47:51.176Z,101721.25
2022-10-10T02:50:18.121Z,101723.94
2022-10-10T02:52:44.912Z,101717.84
2022-10-10T02:55:12.479Z,101708.31
2022-10-10T02:57:39.351Z,101709.16
2022-10-10T03:00:07.232Z,101702.22
2022-10-10T03:02:33.989Z,101704.78
2022-10-10T03:05:00.811Z,101701.34
2022-10-10T03:07:27.605Z,101696.16
2022-10-10T03:09:54.434Z,101697.84
2022-10-10T03:12:21.264Z,101696.94
2022-10-10T03:14:48.041Z,101698.81
2022-10-10T03:17:14.951Z,101695.34
2022-10-10T03:19:41.803Z,101691.81
2022-10-10T03:22:08.641Z,101697.03
2022-10-10T03:24:35.543Z,101697.03
2022-10-10T03:27:02.322Z,101694.38
2022-10-10T03:29:29.328Z,101693.44
2022-10-10T03:31:56.070Z,101697.84
2022-10-10T03:34:22.913Z,101695.22
2022-10-10T03:36:49.720Z,101702.16
2022-10-10T03:39:16.509Z,101699.63
2022-10-10T03:41:43.545Z,101699.53
2022-10-10T03:44:10.293Z,101691.69
2022-10-10T03:46:37.093Z,101689.13
2022-10-10T03:49:03.872Z,101678.69
2022-10-10T03:51:30.707Z,101683.91
2022-10-10T03:53:57.561Z,101687.41
2022-10-10T03:56:25.036Z,101678.72
2022-10-10T03:58:51.846Z,101680.47
2022-10-10T04:01:18.686Z,101687.50
2022-10-10T04:03:49.924Z,101686.66
2022-10-10T04:06:19.483Z,101684.91
2022-10-10T04:08:46.313Z,101678.81
2022-10-10T04:11:13.414Z,101682.31
2022-10-10T04:13:40.211Z,101682.31
2022-10-10T04:16:07.032Z,101686.72
2022-10-10T04:18:33.907Z,101688.50
2022-10-10T04:21:07.215Z,101685.88
2022-10-10T04:23:34.130Z,101684.19
2022-10-10T04:26:00.870Z,101693.84
2022-10-10T04:28:28.105Z,101686.00
2022-10-10T04:30:56.649Z,101689.50
2022-10-10T04:33:23.624Z,101683.44
2022-10-10T04:35:50.646Z,101693.00
2022-10-10T04:38:18.410Z,101693.91
2022-10-10T04:40:45.272Z,101696.50
2022-10-10T04:43:12.025Z,101704.38
2022-10-10T04:45:39.090Z,101697.44
2022-10-10T04:48:05.869Z,101694.81
2022-10-10T04:50:33.234Z,101700.94
2022-10-10T04:52:59.997Z,101696.63
2022-10-10T04:55:26.795Z,101701.84
2022-10-10T04:57:53.912Z,101706.22
2022-10-10T05:00:20.992Z,101706.22
2022-10-10T05:02:48.080Z,101694.06
2022-10-10T05:05:15.213Z,101702.75
2022-10-10T05:07:41.953Z,101705.38
2022-10-10T05:10:09.215Z,101699.31
2022-10-10T05:12:35.988Z,101712.38
2022-10-10T05:15:02.745Z,101718.50
2022-10-10T05:17:29.458Z,101717.59
2022-10-10T05:19:56.253Z,101717.59
2022-10-10T05:22:23.061Z,101729.81
2022-10-10T05:24:50.088Z,101721.09
2022-10-10T05:27:16.893Z,101721.97
2022-10-10T05:29:43.655Z,101723.72
2022-10-10T05:32:10.771Z,101722.00
2022-10-10T05:34:38.441Z,101728.09
2022-10-10T05:37:05.503Z,101731.56
2022-10-10T05:39:32.453Z,101734.22
2022-10-10T05:41:59.565Z,101730.72
2022-10-10T05:44:26.520Z,101735.94
2022-10-10T05:46:53.290Z,101743.75
2022-10-10T05:49:20.258Z,101743.75
2022-10-10T05:51:47.504Z,101739.41
2022-10-10T05:54:14.323Z,101738.53
2022-10-10T05:56:41.952Z,101743.75
2022-10-10T05:59:08.796Z,101744.66
2022-10-10T06:01:37.032Z,101748.13
2022-10-10T06:04:03.955Z,101759.44
2022-10-10T06:06:30.855Z,101749.84
2022-10-10T06:08:59.007Z,101750.69
2022-10-10T06:11:26.711Z,101748.09
2022-10-10T06:13:57.324Z,101749.78
2022-10-10T06:16:27.966Z,101750.69
2022-10-10T06:18:57.159Z,101738.47
2022-10-10T06:21:25.199Z,101739.31
2022-10-10T06:23:52.345Z,101735.81
2022-10-10T06:26:19.090Z,101740.19
2022-10-10T06:28:46.444Z,101749.72
2022-10-10T06:31:14.422Z,101747.09
2022-10-10T06:33:45.672Z,101745.34
2022-10-10T06:36:14.314Z,101743.56
2022-10-10T06:38:45.508Z,101739.19
2022-10-10T06:41:13.153Z,101739.19
2022-10-10T06:43:41.416Z,101737.41
2022-10-10T06:46:08.368Z,101738.25
2022-10-10T06:48:35.765Z,101731.25
2022-10-10T06:51:06.187Z,101734.69
2022-10-10T06:53:33.672Z,101732.91
2022-10-10T06:56:00.997Z,101735.44
2022-10-10T06:58:29.617Z,101729.34
2022-10-10T07:00:59.629Z,101727.56
2022-10-10T07:03:28.503Z,101729.25
2022-10-10T07:05:58.353Z,101732.59
2022-10-10T07:08:25.854Z,101721.22
2022-10-10T07:10:52.866Z,101718.53
2022-10-10T07:13:20.295Z,101714.06
2022-10-10T07:15:47.275Z,101720.97
2022-10-10T07:18:14.419Z,101714.66
2022-10-10T07:20:41.847Z,101715.53
2022-10-10T07:23:08.651Z,101706.53
2022-10-10T07:25:38.357Z,101704.44
2022-10-10T07:28:06.269Z,101696.44
2022-10-10T07:30:33.683Z,101676.84
2022-10-10T07:33:00.570Z,101668.94
2022-10-10T07:35:27.630Z,101664.34
2022-10-10T07:37:56.062Z,101649.34
2022-10-10T07:40:23.764Z,101630.91
2022-10-10T07:42:50.967Z,101621.13
2022-10-10T07:45:18.363Z,101622.72
2022-10-10T07:47:45.328Z,101623.31
2022-10-10T07:50:13.069Z,101614.25
2022-10-10T07:52:40.653Z,101599.16
2022-10-10T07:55:08.818Z,101598.25
2022-10-10T07:57:35.944Z,101586.88
2022-10-10T08:00:09.475Z,101596.50
2022-10-10T08:02:39.356Z,101595.41
2022-10-10T08:05:06.613Z,101586.59
2022-10-10T08:07:33.426Z,101589.19
2022-10-10T08:10:02.385Z,101581.72
2022-10-10T08:12:29.416Z,101579.41
2022-10-10T08:14:56.275Z,101569.84
2022-10-10T08:17:22.981Z,101567.84
2022-10-10T08:19:49.808Z,101572.13
2022-10-10T08:22:16.607Z,101538.97
2022-10-10T08:24:43.424Z,101510.41
2022-10-10T08:27:10.253Z,101487.59
2022-10-10T08:29:38.025Z,101468.41
2022-10-10T08:32:04.846Z,101461.44
2022-10-10T08:34:31.693Z,101448.88
2022-10-10T08:36:58.579Z,101437.34
2022-10-10T08:39:25.625Z,101426.25
2022-10-10T08:41:56.845Z,101411.66
2022-10-10T08:44:53.008Z,101401.91
2022-10-10T08:47:45.216Z,101399.06
2022-10-10T08:50:20.033Z,101402.41
2022-10-10T08:53:01.581Z,101396.00
2022-10-10T08:55:32.275Z,101396.81
2022-10-10T08:58:11.457Z,101390.69
2022-10-10T09:00:43.341Z,101383.44
2022-10-10T09:03:48.702Z,101388.44
2022-10-10T09:06:39.698Z,101383.63
2022-10-10T09:09:15.440Z,101381.34
2022-10-10T09:12:13.153Z,101374.09
2022-10-10T09:14:46.602Z,101383.41
2022-10-10T09:17:54.551Z,101370.31
2022-10-10T09:20:35.406Z,101379.91
2022-10-10T09:23:12.206Z,101372.03
2022-10-10T09:25:51.001Z,101374.13
2022-10-10T09:28:26.921Z,101369.72
2022-10-10T09:30:57.680Z,101367.63
2022-10-10T09:33:33.851Z,101360.16
2022-10-10T09:36:05.406Z,101369.19
2022-10-10T09:38:38.885Z,101365.31
2022-10-10T09:41:25.525Z,101354.84
2022-10-10T09:43:58.632Z,101367.03
2022-10-10T09:46:26.775Z,101359.72
2022-10-10T09:48:55.188Z,101364.75
2022-10-10T09:51:22.375Z,101366.09
2022-10-10T09:53:50.201Z,101377.34
2022-10-10T09:56:27.194Z,101385.13
2022-10-10T09:58:55.996Z,101384.97
2022-10-10T10:01:25.837Z,101392.47
2022-10-10T10:04:29.783Z,101387.78
2022-10-10T10:07:06.260Z,101403.91
2022-10-10T10:09:33.746Z,101397.88
2022-10-10T10:12:00.659Z,101399.91
2022-10-10T10:14:36.626Z,101402.75
2022-10-10T10:17:09.774Z,101404.06
2022-10-10T10:19:42.558Z,101392.88
2022-10-10T10:22:34.358Z,101394.22
2022-10-10T10:25:31.708Z,101401.03
2022-10-10T10:28:31.516Z,101398.91
2022-10-10T10:30:59.436Z,101399.78
2022-10-10T10:33:33.148Z,101403.13
2022-10-10T10:36:19.197Z,101400.97
2022-10-10T10:38:52.123Z,101406.91
2022-10-10T10:41:43.028Z,101400.41
2022-10-10T10:44:23.348Z,101405.81
2022-10-10T10:47:25.115Z,101389.97
2022-10-10T10:50:00.905Z,101403.22
2022-10-10T10:52:37.034Z,101396.16
2022-10-10T10:55:33.141Z,101388.94
2022-10-10T10:59:04.884Z,101381.19
2022-10-10T11:01:44.809Z,101387.44
2022-10-10T11:05:20.346Z,101392.19
2022-10-10T11:07:20.033Z,101384.19
2022-10-10T11:09:51.847Z,101394.25
2022-10-10T11:12:57.124Z,101387.34
2022-10-10T11:15:54.185Z,101381.47
2022-10-10T11:18:27.853Z,101386.63
2022-10-10T11:21:24.785Z,101391.19
2022-10-10T11:23:56.501Z,101397.56
2022-10-10T11:26:38.242Z,101408.94
2022-10-10T11:29:20.024Z,101402.88
2022-10-10T11:32:15.088Z,101414.09
2022-10-10T11:34:50.510Z,101404.47
2022-10-10T11:37:24.578Z,101411.69
2022-10-10T11:39:59.880Z,101414.53
2022-10-10T11:42:37.517Z,101423.28
2022-10-10T11:45:24.240Z,101424.63
2022-10-10T11:48:04.151Z,101428.03
2022-10-10T11:50:39.418Z,101434.19
2022-10-10T11:53:31.142Z,101428.56
2022-10-10T11:56:37.309Z,101448.22
2022-10-10T11:59:22.051Z,101460.53
2022-10-10T12:01:54.009Z,101470.84
2022-10-10T12:04:22.514Z,101476.22
2022-10-10T12:06:55.346Z,101480.66
2022-10-10T12:09:33.466Z,101486.09
2022-10-10T12:12:13.509Z,101489.84
2022-10-10T12:14:48.148Z,101495.28
2022-10-10T12:17:21.497Z,101493.22
2022-10-10T12:19:50.946Z,101492.34
2022-10-10T12:22:29.788Z,101505.25
2022-10-10T12:25:18.426Z,101508.22
2022-10-10T12:27:49.220Z,101508.22
2022-10-10T12:30:20.427Z,101505.59
2022-10-10T12:32:48.000Z,101514.34
2022-10-10T12:35:28.412Z,101521.56
2022-10-10T12:38:15.282Z,101524.06
2022-10-10T12:40:57.368Z,101524.16
2022-10-10T12:43:36.222Z,101523.28
2022-10-10T12:46:22.537Z,101530.81
2022-10-10T12:49:25.227Z,101531.13
2022-10-10T12:52:20.980Z,101542.75
2022-10-10T12:54:50.047Z,101552.41
2022-10-10T12:57:33.336Z,101569.06
2022-10-10T13:00:18.039Z,101595.56
2022-10-10T13:02:48.423Z,101616.03
2022-10-10T13:05:20.701Z,101640.75
2022-10-10T13:07:50.184Z,101654.09
2022-10-10T13:10:27.229Z,101677.13
2022-10-10T13:13:16.501Z,101697.91
2022-10-10T13:15:58.172Z,101721.66
2022-10-10T13:18:39.721Z,101747.28
2022-10-10T13:21:13.091Z,101771.16
2022-10-10T13:26:38.866Z,101812.25
2022-10-10T13:29:18.432Z,101844.81
2022-10-10T13:31:45.516Z,101870.63
2022-10-10T13:34:17.389Z,101884.78
2022-10-10T13:36:45.614Z,101919.50
2022-10-10T13:39:16.805Z,101944.44
2022-10-10T13:41:47.943Z,101996.59
2022-10-10T13:44:20.662Z,102038.28
2022-10-10T13:46:47.556Z,102063.66
2022-10-10T13:49:28.882Z,102104.41
2022-10-10T13:52:20.084Z,102126.72
2022-10-10T13:54:48.613Z,102153.47
2022-10-10T13:57:26.380Z,102190.41
2022-10-10T14:00:02.766Z,102230.13
2022-10-10T14:02:36.324Z,102247.19
2022-10-10T14:05:09.337Z,102267.50
2022-10-10T14:07:36.678Z,102293.78
2022-10-10T14:10:09.109Z,102294.84
2022-10-10T14:12:44.056Z,102313.88
2022-10-10T14:15:42.770Z,102338.31
2022-10-10T14:18:22.136Z,102340.13
2022-10-10T14:20:49.790Z,102345.44
2022-10-10T14:23:17.382Z,102355.00
2022-10-10T14:25:46.812Z,102354.06
2022-10-10T14:28:21.002Z,102360.78
2022-10-10T14:30:48.243Z,102347.38
2022-10-10T14:33:17.985Z,102365.25
2022-10-10T14:35:46.307Z,102347.38
2022-10-10T14:38:14.120Z,102349.28
2022-10-10T14:40:46.980Z,102333.63
2022-10-10T14:43:14.129Z,102321.72
2022-10-10T14:45:40.919Z,102307.16
2022-10-10T14:48:07.777Z,102270.44
2022-10-10T14:50:37.289Z,102226.34
2022-10-10T14:53:04.946Z,102174.25
2022-10-10T14:55:31.838Z,102140.44
2022-10-10T14:57:58.605Z,102106.94
2022-10-10T15:00:27.359Z,102042.19
2022-10-10T15:02:54.187Z,102017.88
2022-10-10T15:05:21.041Z,101998.81
2022-10-10T15:07:50.419Z,101997.47
2022-10-10T15:10:34.382Z,101973.38
2022-10-10T15:13:03.139Z,101855.19
2022-10-10T15:15:30.472Z,101774.50
2022-10-10T15:17:58.335Z,101747.91
2022-10-10T15:20:30.915Z,101735.06
2022-10-10T15:22:59.858Z,101737.56
2022-10-10T15:25:33.142Z,101745.34
2022-10-10T15:28:04.571Z,101739.03
2022-10-10T15:30:31.473Z,101751.41
2022-10-10T15:32:58.446Z,101765.19
2022-10-10T15:35:26.242Z,101776.13
2022-10-10T15:37:53.434Z,101792.66
2022-10-10T15:40:23.612Z,101800.59
2022-10-10T15:42:51.073Z,101815.22
2022-10-10T15:45:43.579Z,101826.53
2022-10-10T15:48:05.954Z,101830.50
2022-10-10T15:50:36.027Z,101843.09
2022-10-10T15:53:03.006Z,101849.38
2022-10-10T15:55:29.996Z,101853.69
2022-10-10T15:57:56.876Z,101851.97
2022-10-10T16:00:23.939Z,101860.88
2022-10-10T16:02:50.782Z,101868.16
2022-10-10T16:05:17.717Z,101886.47
2022-10-10T16:07:48.345Z,101896.81
2022-10-10T16:10:16.195Z,101916.13
2022-10-10T16:12:43.276Z,101921.41
2022-10-10T16:15:10.276Z,101935.91
2022-10-10T16:17:37.040Z,101947.91
2022-10-10T16:20:04.504Z,101959.75
2022-10-10T16:22:31.587Z,101960.25
2022-10-10T16:25:17.692Z,101972.00
2022-10-10T16:27:45.394Z,101981.38
2022-10-10T16:30:12.512Z,101990.41
2022-10-10T16:32:42.406Z,101990.56
2022-10-10T16:35:10.678Z,101998.66
2022-10-10T16:37:38.173Z,102006.66
2022-10-10T16:40:05.720Z,102018.16
2022-10-10T16:42:32.724Z,102019.09
2022-10-10T16:44:59.615Z,102027.09
2022-10-10T16:47:26.411Z,102034.22
2022-10-10T16:49:53.184Z,102033.53
2022-10-10T16:52:20.003Z,102049.44
2022-10-10T16:54:51.131Z,102056.56
2022-10-10T16:57:18.850Z,102071.56
2022-10-10T16:59:45.798Z,102075.22
2022-10-10T17:02:13.101Z,102091.06
2022-10-10T17:04:39.873Z,102105.03
2022-10-10T17:07:06.720Z,102111.16
2022-10-10T17:09:33.748Z,102136.63
2022-10-10T17:12:00.504Z,102150.78
2022-10-10T17:14:27.262Z,102161.47
2022-10-10T17:19:40.971Z,102198.31
2022-10-10T17:22:07.986Z,102214.13
2022-10-10T17:24:35.931Z,102227.34
2022-10-10T17:27:02.703Z,102245.78
2022-10-10T17:29:29.472Z,102261.59
2022-10-10T17:31:56.245Z,102269.47
2022-10-10T17:34:23.262Z,102297.41
2022-10-10T17:36:50.085Z,102313.19
2022-10-10T17:39:16.990Z,102336.72
2022-10-10T17:41:45.920Z,102339.34
2022-10-10T17:44:24.044Z,102352.53
2022-10-10T17:46:50.794Z,102360.34
2022-10-10T17:49:19.421Z,102371.75
2022-10-10T17:51:46.238Z,102374.38
2022-10-10T17:54:13.561Z,102373.53
2022-10-10T17:56:44.735Z,102364.81
2022-10-10T17:59:12.336Z,102377.97
2022-10-10T18:01:40.012Z,102372.78
2022-10-10T18:04:07.564Z,102375.44
2022-10-10T18:06:37.136Z,102378.09
2022-10-10T18:09:04.187Z,102386.88
2022-10-10T18:11:31.810Z,102390.38
2022-10-10T18:14:01.758Z,102391.28
2022-10-10T18:16:33.980Z,102396.53
2022-10-10T18:19:03.404Z,102402.63
2022-10-10T18:21:30.306Z,102401.78
2022-10-10T18:23:57.166Z,102405.28
2022-10-10T18:26:26.742Z,102411.44
2022-10-10T18:28:55.540Z,102423.69
2022-10-10T18:31:28.259Z,102441.16
2022-10-10T18:33:55.692Z,102449.00
2022-10-10T18:36:25.285Z,102456.03
2022-10-10T18:38:52.513Z,102461.25
2022-10-10T18:41:24.674Z,102466.50
2022-10-10T18:43:52.098Z,102471.75
2022-10-10T18:46:22.521Z,102468.25
2022-10-10T18:48:53.712Z,102469.13
2022-10-10T18:51:24.499Z,102476.09
2022-10-10T18:53:58.597Z,102483.03
2022-10-10T18:56:25.510Z,102483.00
2022-10-10T18:58:55.375Z,102496.94
2022-10-10T19:01:25.247Z,102507.38
2022-10-10T19:03:54.211Z,102510.91
2022-10-10T19:06:23.393Z,102520.50
2022-10-10T19:08:58.799Z,102523.06
2022-10-10T19:11:34.519Z,102534.44
2022-10-10T19:14:04.228Z,102542.28
2022-10-10T19:16:31.364Z,102555.47
2022-10-10T19:18:59.439Z,102575.63
2022-10-10T19:21:28.082Z,102579.13
2022-10-10T19:23:55.426Z,102582.59
2022-10-10T19:26:22.325Z,102582.56
2022-10-10T19:28:49.258Z,102584.31
2022-10-10T19:31:18.068Z,102588.66
2022-10-10T19:33:45.728Z,102579.91
2022-10-10T19:36:13.359Z,102586.03
2022-10-10T19:38:41.960Z,102593.06
2022-10-10T19:41:10.689Z,102596.56
2022-10-10T19:43:37.428Z,102595.66
2022-10-10T19:46:06.874Z,102595.66
2022-10-10T19:48:34.966Z,102594.78
2022-10-10T19:51:11.693Z,102607.06
2022-10-10T19:53:39.859Z,102607.94
2022-10-10T19:56:11.943Z,102609.69
2022-10-10T19:58:39.504Z,102609.69
2022-10-10T20:01:08.637Z,102604.41
2022-10-10T20:03:35.495Z,102600.06
2022-10-10T20:06:03.181Z,102605.25
2022-10-10T20:08:30.785Z,102614.84
2022-10-10T20:10:58.972Z,102611.31
2022-10-10T20:13:25.813Z,102612.16
2022-10-10T20:15:52.675Z,102616.50
2022-10-10T20:18:21.922Z,102616.50
2022-10-10T20:20:51.562Z,102625.22
2022-10-10T20:23:21.541Z,102626.16
2022-10-10T20:25:48.366Z,102632.25
2022-10-10T20:28:18.375Z,102636.59
2022-10-10T20:30:50.752Z,102633.94
2022-10-10T20:33:19.456Z,102638.28
2022-10-10T20:35:46.947Z,102649.66
2022-10-10T20:38:16.269Z,102658.44
2022-10-10T20:40:44.563Z,102654.94
2022-10-10T20:43:12.270Z,102660.16
2022-10-10T20:45:40.449Z,102658.44
2022-10-10T20:48:08.198Z,102661.06
2022-10-10T20:50:36.338Z,102660.19
2022-10-10T20:53:03.540Z,102661.91
2022-10-10T20:55:30.613Z,102663.63
2022-10-10T20:57:57.360Z,102668.00
2022-10-10T21:00:24.261Z,102675.84
2022-10-10T21:02:51.166Z,102681.13
2022-10-10T21:05:17.962Z,102675.88
2022-10-10T21:07:45.982Z,102682.84
2022-10-10T21:10:12.822Z,102690.66
2022-10-10T21:12:39.641Z,102693.25
2022-10-10T21:15:06.898Z,102705.47
2022-10-10T21:17:33.687Z,102704.53
2022-10-10T21:20:00.709Z,102717.63
2022-10-10T21:22:27.533Z,102722.88
2022-10-10T21:24:54.289Z,102733.34
2022-10-10T21:27:21.066Z,102728.13
2022-10-10T21:29:47.901Z,102736.88
2022-10-10T21:32:14.642Z,102748.19
2022-10-10T21:34:41.360Z,102748.22
2022-10-10T21:37:08.173Z,102757.84
2022-10-10T21:39:35.019Z,102764.91
2022-10-10T21:42:02.427Z,102769.31
2022-10-10T21:44:29.247Z,102775.41
2022-10-10T21:46:56.002Z,102777.19
2022-10-10T21:49:22.898Z,102784.97
2022-10-10T21:51:50.146Z,102785.81
2022-10-10T21:54:17.007Z,102794.50
2022-10-10T21:56:43.803Z,102803.19
2022-10-10T21:59:11.814Z,102807.53
2022-10-10T22:01:38.561Z,102812.75
2022-10-10T22:04:06.202Z,102816.19
2022-10-10T22:06:33.126Z,102821.31
2022-10-10T22:09:01.730Z,102817.75
2022-10-10T22:11:30.657Z,102820.25
2022-10-10T22:13:57.982Z,102831.56
2022-10-10T22:16:24.845Z,102832.47
2022-10-10T22:18:56.358Z,102837.69
2022-10-10T22:21:28.032Z,102844.66
2022-10-10T22:23:57.865Z,102848.03
2022-10-10T22:26:24.625Z,102860.19
2022-10-10T22:28:51.432Z,102868.88
2022-10-10T22:31:19.046Z,102878.44
2022-10-10T22:33:45.872Z,102883.53
2022-10-10T22:36:12.907Z,102889.56
2022-10-10T22:38:41.876Z,102896.47
2022-10-10T22:41:09.426Z,102895.53
2022-10-10T22:43:36.418Z,102911.22
2022-10-10T22:46:04.169Z,102920.84
2022-10-10T22:48:31.108Z,102934.88
2022-10-10T22:51:03.276Z,102939.22
2022-10-10T22:53:30.697Z,102951.50
2022-10-10T22:55:57.703Z,102965.47
2022-10-10T22:58:25.159Z,102961.97
2022-10-10T23:00:52.697Z,102970.75
2022-10-10T23:03:20.394Z,102975.09
2022-10-10T23:05:47.185Z,102984.56
2022-10-10T23:08:13.942Z,102986.19
2022-10-10T23:10:40.982Z,102987.72
2022-10-10T23:13:07.744Z,102983.09
2022-10-10T23:15:34.447Z,102989.81
2022-10-10T23:18:01.192Z,102997.53
2022-10-10T23:20:28.084Z,102990.41
2022-10-10T23:22:55.381Z,103003.41
2022-10-10T23:25:22.510Z,103010.28
2022-10-10T23:27:49.879Z,103018.91
2022-10-10T23:30:17.119Z,103020.69
2022-10-10T23:32:43.903Z,103022.41
2022-10-10T23:35:11.265Z,103038.38
2022-10-10T23:37:38.022Z,103043.88
2022-10-10T23:40:05.346Z,103058.81
2022-10-10T23:42:32.888Z,103049.09
2022-10-10T23:44:59.646Z,103060.44
2022-10-10T23:47:26.429Z,103057.75
2022-10-10T23:49:53.250Z,103063.91
2022-10-10T23:52:20.088Z,103064.03
2022-10-10T23:54:46.866Z,103077.97
2022-10-10T23:57:13.648Z,103083.03
2022-10-10T23:59:40.336Z,103096.03
